createdAt,value
2019-02-16T00:02:15.065Z,71.55
2019-02-16T00:05:19.798Z,71.53
2019-02-16T00:08:24.079Z,71.48
2019-02-16T00:11:28.357Z,71.54
2019-02-16T00:14:32.767Z,71.60
2019-02-16T00:17:37.081Z,71.86
2019-02-16T00:20:41.369Z,72.03
2019-02-16T00:23:45.683Z,72.08
2019-02-16T00:26:50.115Z,72.16
2019-02-16T00:29:54.373Z,72.17
2019-02-16T00:32:58.769Z,72.22
2019-02-16T00:36:03.231Z,72.41
2019-02-16T00:39:07.896Z,72.48
2019-02-16T00:42:15.216Z,72.45
2019-02-16T00:45:19.501Z,72.67
2019-02-16T00:48:23.814Z,72.46
2019-02-16T00:51:28.283Z,72.46
2019-02-16T00:54:34.234Z,72.52
2019-02-16T00:57:39.996Z,72.64
2019-02-16T01:00:44.313Z,72.68
2019-02-16T01:03:48.739Z,72.77
2019-02-16T01:06:53.085Z,72.79
2019-02-16T01:09:57.645Z,72.92
2019-02-16T01:13:01.917Z,73.02
2019-02-16T01:16:06.315Z,73.15
2019-02-16T01:19:10.616Z,73.01
2019-02-16T01:22:16.642Z,72.80
2019-02-16T01:25:20.940Z,72.62
2019-02-16T01:28:25.405Z,72.74
2019-02-16T01:31:29.710Z,72.92
2019-02-16T01:34:34.078Z,73.02
2019-02-16T01:37:41.343Z,73.05
2019-02-16T01:40:45.647Z,73.18
2019-02-16T01:43:50.191Z,73.28
2019-02-16T01:46:55.881Z,73.28
2019-02-16T01:50:00.326Z,73.53
2019-02-16T01:53:04.766Z,73.57
2019-02-16T01:56:11.423Z,73.70
2019-02-16T01:59:15.855Z,73.64
2019-02-16T02:02:22.237Z,73.65
2019-02-16T02:05:26.583Z,73.69
2019-02-16T02:08:30.881Z,73.57
2019-02-16T02:11:37.740Z,73.08
2019-02-16T02:14:42.182Z,73.14
2019-02-16T02:17:46.498Z,73.36
2019-02-16T02:20:50.806Z,73.33
2019-02-16T02:23:55.114Z,73.60
2019-02-16T02:26:59.839Z,73.69
2019-02-16T02:30:04.281Z,73.73
2019-02-16T02:33:09.630Z,73.76
2019-02-16T02:36:13.941Z,74.01
2019-02-16T02:39:18.451Z,74.17
2019-02-16T02:42:26.170Z,74.37
2019-02-16T02:45:30.467Z,74.23
2019-02-16T02:48:34.792Z,73.92
2019-02-16T02:51:39.424Z,73.97
2019-02-16T02:54:45.603Z,74.15
2019-02-16T02:57:49.931Z,74.36
2019-02-16T03:00:54.325Z,74.55
2019-02-16T03:03:58.718Z,74.63
2019-02-16T03:07:03.058Z,74.67
2019-02-16T03:10:07.679Z,74.79
2019-02-16T03:13:11.965Z,74.90
2019-02-16T03:16:16.699Z,75.00
2019-02-16T03:19:21.014Z,75.14
2019-02-16T03:22:26.906Z,75.30
2019-02-16T03:25:31.420Z,75.77
2019-02-16T03:28:55.676Z,75.87
2019-02-16T03:32:17.519Z,76.16
2019-02-16T03:36:15.319Z,76.54
2019-02-16T03:39:35.691Z,76.81
2019-02-16T03:42:42.315Z,77.05
2019-02-16T03:45:46.657Z,77.20
2019-02-16T03:48:51.060Z,77.15
2019-02-16T03:51:55.372Z,77.18
2019-02-16T03:54:59.700Z,77.24
2019-02-16T03:58:06.966Z,77.34
2019-02-16T04:01:13.991Z,77.51
2019-02-16T04:04:18.372Z,77.69
2019-02-16T04:07:25.752Z,77.79
2019-02-16T04:10:33.072Z,77.87
2019-02-16T04:13:37.436Z,77.99
2019-02-16T04:16:41.765Z,78.23
2019-02-16T04:19:46.059Z,78.44
2019-02-16T04:22:52.478Z,78.62
2019-02-16T04:25:56.940Z,78.92
2019-02-16T04:29:01.231Z,79.18
2019-02-16T04:32:05.512Z,79.18
2019-02-16T04:35:09.849Z,79.28
2019-02-16T04:38:16.171Z,79.21
2019-02-16T04:41:20.153Z,79.31
2019-02-16T04:44:24.590Z,79.35
2019-02-16T04:47:28.884Z,79.28
2019-02-16T04:50:33.163Z,79.37
2019-02-16T04:53:37.488Z,79.12
2019-02-16T04:56:41.767Z,78.86
2019-02-16T04:59:46.028Z,78.79
2019-02-16T05:02:50.323Z,78.10
2019-02-16T05:05:54.815Z,77.08
2019-02-16T05:08:59.274Z,76.24
2019-02-16T05:12:05.378Z,75.65
2019-02-16T05:15:09.807Z,75.47
2019-02-16T05:18:15.872Z,74.73
2019-02-16T05:21:20.168Z,74.11
2019-02-16T05:24:24.522Z,74.02
2019-02-16T05:27:31.574Z,73.96
2019-02-16T05:30:35.866Z,74.32
2019-02-16T05:33:41.528Z,74.79
2019-02-16T05:36:45.843Z,75.10
2019-02-16T05:39:51.866Z,75.35
2019-02-16T05:42:56.173Z,75.30
2019-02-16T05:46:00.505Z,75.34
2019-02-16T05:49:07.593Z,74.69
2019-02-16T05:52:11.961Z,74.50
2019-02-16T05:55:16.229Z,74.51
2019-02-16T05:58:23.196Z,74.62
2019-02-16T06:01:27.479Z,74.88
2019-02-16T06:04:31.858Z,74.97
2019-02-16T06:07:36.273Z,74.87
2019-02-16T06:10:40.578Z,75.00
2019-02-16T06:13:44.917Z,75.42
2019-02-16T06:16:49.205Z,75.62
2019-02-16T06:19:53.483Z,75.67
2019-02-16T06:23:04.287Z,75.60
2019-02-16T06:26:06.274Z,75.56
2019-02-16T06:29:10.621Z,75.35
2019-02-16T06:32:14.945Z,75.18
2019-02-16T06:35:50.581Z,75.11
2019-02-16T06:38:55.088Z,75.14
2019-02-16T06:42:01.342Z,75.17
2019-02-16T06:45:07.221Z,75.31
2019-02-16T06:48:11.525Z,75.40
2019-02-16T06:51:16.161Z,75.73
2019-02-16T06:54:20.472Z,75.17
2019-02-16T06:57:28.243Z,74.58
2019-02-16T07:00:32.727Z,74.17
2019-02-16T07:03:37.034Z,74.03
2019-02-16T07:06:41.384Z,74.45
2019-02-16T07:09:45.791Z,74.64
2019-02-16T07:12:52.892Z,74.74
2019-02-16T07:16:25.589Z,75.01
2019-02-16T07:19:33.121Z,75.36
2019-02-16T07:22:37.534Z,75.54
2019-02-16T07:25:42.877Z,75.69
2019-02-16T07:28:47.111Z,75.49
2019-02-16T07:31:53.472Z,75.03
2019-02-16T07:34:57.755Z,75.19
2019-02-16T07:38:02.149Z,75.23
2019-02-16T07:41:06.583Z,75.23
2019-02-16T07:44:45.122Z,75.42
2019-02-16T07:48:08.488Z,75.45
2019-02-16T07:51:31.712Z,75.85
2019-02-16T07:55:00.932Z,75.64
2019-02-16T07:58:11.783Z,75.86
2019-02-16T08:01:35.023Z,75.69
2019-02-16T08:05:01.329Z,75.56
2019-02-16T08:08:20.050Z,75.34
2019-02-16T08:11:41.475Z,75.10
2019-02-16T08:15:23.150Z,75.74
2019-02-16T08:18:39.564Z,75.39
2019-02-16T08:22:09.112Z,75.14
2019-02-16T08:25:39.853Z,75.26
2019-02-16T08:29:02.100Z,74.93
2019-02-16T08:32:31.405Z,74.78
2019-02-16T08:35:54.766Z,74.99
2019-02-16T08:39:19.728Z,75.42
2019-02-16T08:43:01.189Z,74.78
2019-02-16T08:46:23.091Z,74.83
2019-02-16T08:49:46.223Z,75.44
2019-02-16T08:53:18.586Z,75.43
2019-02-16T08:56:41.143Z,75.18
2019-02-16T08:59:57.659Z,75.06
2019-02-16T09:03:22.762Z,75.02
2019-02-16T09:06:57.420Z,74.91
2019-02-16T09:10:11.563Z,75.46
2019-02-16T09:13:40.981Z,75.14
2019-02-16T09:17:03.073Z,74.83
2019-02-16T09:20:17.555Z,74.92
2019-02-16T09:23:44.541Z,74.88
2019-02-16T09:27:06.928Z,74.49
2019-02-16T09:30:34.004Z,74.34
2019-02-16T09:33:46.205Z,73.73
2019-02-16T09:37:06.040Z,73.23
2019-02-16T09:40:35.112Z,73.37
2019-02-16T09:43:51.092Z,73.24
2019-02-16T09:47:17.436Z,72.80
2019-02-16T09:50:30.373Z,72.56
2019-02-16T09:54:08.394Z,73.04
2019-02-16T09:57:26.587Z,72.56
2019-02-16T10:00:48.169Z,72.94
2019-02-16T10:04:11.357Z,72.72
2019-02-16T10:07:46.943Z,72.87
2019-02-16T10:11:13.617Z,72.63
2019-02-16T10:14:38.161Z,72.39
2019-02-16T10:17:54.867Z,72.88
2019-02-16T10:21:21.376Z,72.39
2019-02-16T10:24:37.796Z,72.44
2019-02-16T10:27:56.101Z,72.64
2019-02-16T10:31:19.432Z,71.97
2019-02-16T10:34:42.967Z,72.37
2019-02-16T10:38:24.384Z,72.09
2019-02-16T10:41:46.427Z,71.54
2019-02-16T10:45:06.179Z,71.23
2019-02-16T10:48:32.445Z,71.83
2019-02-16T10:51:53.854Z,71.49
2019-02-16T10:55:22.977Z,71.40
2019-02-16T10:58:55.263Z,71.67
2019-02-16T11:02:17.269Z,72.06
2019-02-16T11:05:43.668Z,72.19
2019-02-16T11:09:02.742Z,71.86
2019-02-16T11:12:26.122Z,71.43
2019-02-16T11:15:45.727Z,70.41
2019-02-16T11:19:04.546Z,70.07
2019-02-16T11:22:17.667Z,69.96
2019-02-16T11:25:39.553Z,68.74
2019-02-16T11:29:05.929Z,68.60
2019-02-16T11:32:38.549Z,68.58
2019-02-16T11:36:08.195Z,67.90
2019-02-16T11:39:44.787Z,66.82
2019-02-16T11:43:11.102Z,66.26
2019-02-16T11:46:40.614Z,67.21
2019-02-16T11:50:16.455Z,66.45
2019-02-16T11:54:03.022Z,66.19
2019-02-16T11:57:32.208Z,66.63
2019-02-16T12:00:58.210Z,66.15
2019-02-16T12:04:19.463Z,65.91
2019-02-16T12:07:43.704Z,66.21
2019-02-16T12:11:10.074Z,66.28
2019-02-16T12:14:32.036Z,66.60
2019-02-16T12:17:53.866Z,66.71
2019-02-16T12:21:17.195Z,66.74
2019-02-16T12:25:02.952Z,66.64
2019-02-16T12:28:11.659Z,66.52
2019-02-16T12:31:53.406Z,66.82
2019-02-16T12:35:19.325Z,67.32
2019-02-16T12:38:41.323Z,67.11
2019-02-16T12:42:03.507Z,67.37
2019-02-16T12:45:23.382Z,67.09
2019-02-16T12:48:52.836Z,67.64
2019-02-16T12:55:43.032Z,68.56
2019-02-16T12:58:54.983Z,69.71
2019-02-16T13:02:17.011Z,70.13
2019-02-16T13:05:32.020Z,70.22
2019-02-16T13:08:52.039Z,70.25
2019-02-16T13:12:14.173Z,71.00
2019-02-16T13:15:52.533Z,71.41
2019-02-16T13:19:06.295Z,71.90
2019-02-16T13:22:28.370Z,71.91
2019-02-16T13:25:54.702Z,72.44
2019-02-16T13:29:14.236Z,72.87
2019-02-16T13:32:52.928Z,72.74
2019-02-16T13:36:18.987Z,72.97
2019-02-16T13:39:33.648Z,73.29
2019-02-16T13:42:53.071Z,73.94
2019-02-16T13:46:34.854Z,74.14
2019-02-16T13:49:44.771Z,74.60
2019-02-16T13:53:06.259Z,74.38
2019-02-16T13:56:37.798Z,74.39
2019-02-16T14:00:06.736Z,74.27
2019-02-16T14:03:38.191Z,74.63
2019-02-16T14:06:50.831Z,74.67
2019-02-16T14:10:17.494Z,74.69
2019-02-16T14:13:31.001Z,75.45
2019-02-16T14:16:44.773Z,75.73
2019-02-16T14:19:49.181Z,75.96
2019-02-16T14:22:53.489Z,76.49
2019-02-16T14:25:57.889Z,77.02
2019-02-16T14:29:02.333Z,76.96
2019-02-16T14:32:06.634Z,77.25
2019-02-16T14:35:12.491Z,77.28
2019-02-16T14:38:37.156Z,77.89
2019-02-16T14:41:41.465Z,77.97
2019-02-16T14:44:45.783Z,77.93
2019-02-16T14:47:50.125Z,78.21
2019-02-16T14:50:54.465Z,78.69
2019-02-16T14:53:58.760Z,78.69
2019-02-16T14:57:03.054Z,79.00
2019-02-16T15:00:08.318Z,79.31
2019-02-16T15:03:12.782Z,79.37
2019-02-16T15:06:17.106Z,79.38
2019-02-16T15:09:21.503Z,79.87
2019-02-16T15:12:25.896Z,80.31
2019-02-16T15:15:30.312Z,80.84
2019-02-16T15:18:35.940Z,81.06
2019-02-16T15:21:40.301Z,81.54
2019-02-16T15:24:44.714Z,82.03
2019-02-16T15:27:49.088Z,82.25
2019-02-16T15:30:53.399Z,82.68
2019-02-16T15:33:57.705Z,82.89
2019-02-16T15:37:02.051Z,83.28
2019-02-16T15:40:06.678Z,83.41
2019-02-16T15:43:11.071Z,83.78
2019-02-16T15:46:15.386Z,84.10
2019-02-16T15:49:19.802Z,84.58
2019-02-16T15:52:24.127Z,85.01
2019-02-16T15:55:29.512Z,85.37
2019-02-16T15:58:33.846Z,85.61
2019-02-16T16:01:38.237Z,85.84
2019-02-16T16:04:42.587Z,85.92
2019-02-16T16:07:56.497Z,86.21
2019-02-16T16:11:08.230Z,86.52
2019-02-16T16:14:28.660Z,86.94
2019-02-16T16:17:57.671Z,87.13
2019-02-16T16:21:23.720Z,87.43
2019-02-16T16:25:02.527Z,87.76
2019-02-16T16:28:24.728Z,87.93
2019-02-16T16:31:50.934Z,88.04
2019-02-16T16:38:19.620Z,88.44
2019-02-16T16:41:36.749Z,88.38
2019-02-16T16:44:58.846Z,88.40
2019-02-16T16:48:13.432Z,88.44
2019-02-16T16:51:33.523Z,88.59
2019-02-16T16:54:54.471Z,88.67
2019-02-16T16:58:16.674Z,88.65
2019-02-16T17:01:38.693Z,88.68
2019-02-16T17:05:05.049Z,88.42
2019-02-16T17:08:17.367Z,88.30
2019-02-16T17:11:43.511Z,88.26
2019-02-16T17:15:12.329Z,88.62
2019-02-16T17:18:29.090Z,88.64
2019-02-16T17:22:07.513Z,88.84
2019-02-16T17:25:30.984Z,88.81
2019-02-16T17:28:50.318Z,88.95
2019-02-16T17:32:26.022Z,89.14
2019-02-16T17:35:39.336Z,89.21
2019-02-16T17:39:01.209Z,89.30
2019-02-16T17:42:30.679Z,89.42
2019-02-16T17:46:01.518Z,89.57
2019-02-16T17:49:17.123Z,89.66
2019-02-16T17:52:39.197Z,89.75
2019-02-16T17:56:02.481Z,89.75
2019-02-16T17:59:24.262Z,89.61
2019-02-16T18:02:53.613Z,89.62
2019-02-16T18:06:15.528Z,89.11
2019-02-16T18:09:37.647Z,89.47
2019-02-16T18:12:58.667Z,89.50
2019-02-16T18:16:19.353Z,89.56
2019-02-16T18:19:42.251Z,89.52
2019-02-16T18:22:55.426Z,89.25
2019-02-16T18:26:10.195Z,88.99
2019-02-16T18:29:26.079Z,89.06
2019-02-16T18:32:50.309Z,89.15
2019-02-16T18:36:03.921Z,88.85
2019-02-16T18:39:38.034Z,88.44
2019-02-16T18:43:01.922Z,88.61
2019-02-16T18:46:25.249Z,88.68
2019-02-16T18:50:06.946Z,88.59
2019-02-16T18:53:31.064Z,89.01
2019-02-16T18:56:54.344Z,88.93
2019-02-16T19:00:08.201Z,89.30
2019-02-16T19:03:31.961Z,89.64
2019-02-16T19:06:55.237Z,89.60
2019-02-16T19:10:33.788Z,89.67
2019-02-16T19:14:06.115Z,89.30
2019-02-16T19:17:29.486Z,89.52
2019-02-16T19:20:58.812Z,89.82
2019-02-16T19:24:21.007Z,89.69
2019-02-16T19:27:42.953Z,89.75
2019-02-16T19:31:26.759Z,89.71
2019-02-16T19:34:52.894Z,89.72
2019-02-16T19:38:28.439Z,89.13
2019-02-16T19:42:07.076Z,89.93
2019-02-16T19:45:42.659Z,90.06
2019-02-16T19:49:06.195Z,90.55
2019-02-16T19:52:29.589Z,90.60
2019-02-16T19:55:56.030Z,90.51
2019-02-16T19:59:26.963Z,90.66
2019-02-16T20:02:49.364Z,90.61
2019-02-16T20:06:25.298Z,90.83
2019-02-16T20:09:48.574Z,90.77
2019-02-16T20:13:13.115Z,90.78
2019-02-16T20:16:35.464Z,90.44
2019-02-16T20:20:04.887Z,90.43
2019-02-16T20:23:39.675Z,90.29
2019-02-16T20:27:03.290Z,90.49
2019-02-16T20:30:25.670Z,90.41
2019-02-16T20:33:39.313Z,91.21
2019-02-16T20:37:04.958Z,91.14
2019-02-16T20:40:24.193Z,91.16
2019-02-16T20:43:41.941Z,91.56
2019-02-16T20:47:14.715Z,91.91
2019-02-16T20:50:41.151Z,91.60
2019-02-16T20:54:04.424Z,91.63
2019-02-16T20:57:47.086Z,91.83
2019-02-16T21:01:05.241Z,91.47
2019-02-16T21:04:20.351Z,91.43
2019-02-16T21:07:52.625Z,91.46
2019-02-16T21:11:18.399Z,91.52
2019-02-16T21:14:32.342Z,91.36
2019-02-16T21:18:00.647Z,91.44
2019-02-16T21:21:22.474Z,91.52
2019-02-16T21:24:57.806Z,91.71
2019-02-16T21:28:11.566Z,91.91
2019-02-16T21:31:37.991Z,91.89
2019-02-16T21:35:00.131Z,91.89
2019-02-16T21:38:22.723Z,91.93
2019-02-16T21:41:44.539Z,92.05
2019-02-16T21:45:03.558Z,92.19
2019-02-16T21:48:32.766Z,92.24
2019-02-16T21:52:02.153Z,92.25
2019-02-16T21:55:31.988Z,92.35
2019-02-16T21:58:54.003Z,92.05
2019-02-16T22:02:16.126Z,92.23
2019-02-16T22:05:42.536Z,92.49
2019-02-16T22:09:03.422Z,92.49
2019-02-16T22:12:17.194Z,92.18
2019-02-16T22:15:21.731Z,92.32
2019-02-16T22:18:26.041Z,92.51
2019-02-16T22:21:33.357Z,92.58
2019-02-16T22:24:37.688Z,92.59
2019-02-16T22:27:42.083Z,92.60
2019-02-16T22:30:47.002Z,92.64
2019-02-16T22:33:51.421Z,92.67
2019-02-16T22:36:55.871Z,92.67
2019-02-16T22:40:00.329Z,92.42
2019-02-16T22:43:04.765Z,92.57
2019-02-16T22:46:09.216Z,92.73
2019-02-16T22:49:14.688Z,92.71
2019-02-16T22:52:19.099Z,92.60
2019-02-16T22:55:25.051Z,92.75
2019-02-16T22:58:29.458Z,92.70
2019-02-16T23:01:34.238Z,92.69
2019-02-16T23:04:38.571Z,92.74
2019-02-16T23:07:42.954Z,92.72
2019-02-16T23:10:47.378Z,92.64
2019-02-16T23:13:51.816Z,92.60
2019-02-16T23:16:56.148Z,92.58
2019-02-16T23:20:00.573Z,92.61
2019-02-16T23:23:05.166Z,92.72
2019-02-16T23:26:12.062Z,92.76
2019-02-16T23:29:16.490Z,92.76
2019-02-16T23:32:22.195Z,92.58
2019-02-16T23:35:26.612Z,92.62
2019-02-16T23:38:30.978Z,92.73
2019-02-16T23:41:35.287Z,92.75
2019-02-16T23:44:39.674Z,92.80
2019-02-16T23:47:43.977Z,92.75
2019-02-16T23:50:48.363Z,92.79
2019-02-16T23:53:52.804Z,92.76
2019-02-16T23:56:57.078Z,92.89
